UMMS/MSQ METAR and TAF weather

Enter ICAO airport designator
Station Type Date Time Source
UMMS METAR 2022/06/29 00:30 UTC NOAA

UMMS 290030Z 33001MPS CAVOK 17/16 Q1018 NOSIG


Station Type Date Time Source
UMMS Decoded METAR 2022/06/29 00:30 UTC NOAA

Minsk, Belarus (UMMS) 53-56N 027-38E 231M
Jun 28, 2022 - 08:30 PM EDT / 2022.06.29 0030 UTC
Wind: from the NNW (330 degrees) at 2 MPH (2 KT):0
Visibility: greater than 7 mile(s):0
Temperature: 62 F (17 C)
Dew Point: 60 F (16 C)
Relative Humidity: 93%
Pressure (altimeter): 30.06 in. Hg (1018 hPa)
ob: UMMS 290030Z 33001MPS CAVOK 17/16 Q1018 NOSIG
cycle: 0

Station Type Date Time Source
UMMS TAF 2022/06/28 19:12 UTC NOAA

TAF
AMD UMMS 281905Z 2819/2918 VRB02MPS 6000 BKN015 TX26/2911Z TN21/2918Z
TEMPO 2819/2906 VRB17MPS 0300 +TSRAGR FG SQ OVC002 BKN015CB
FM290600 12005G10MPS 9999 BKN020
TEMPO 2906/2918 VRB15MPS 0800 +TSRAGR SQ OVC004 BKN020CB

Example: see airport list